Time;durP1;ratioP1;P1;durP2;ratioP2;P2;SDS_P1;SDS_P2;PMS_P1;PMS_P2;Temp;Humidity;BMP_temperature;BMP_pressure;BME280_temperature;BME280_humidity;BME280_pressure;Samples;Min_cycle;Max_cycle;Signal;HPM_P1;HPM_P2
2024/01/13 00:01:42;;;;;;;25.03;10.13;;;-3.60;99.90;;;;;;4146038;28;20890;-60
2024/01/13 00:03:43;;;;;;;22.60;9.73;;;-3.60;99.90;;;;;;4145386;28;20276;-59
2024/01/13 00:05:45;;;;;;;22.27;9.27;;;-3.70;99.90;;;;;;4144768;28;20691;-59
2024/01/13 00:07:46;;;;;;;22.53;10.07;;;-3.60;99.90;;;;;;4145212;28;20275;-60
2024/01/13 00:09:47;;;;;;;22.83;9.63;;;-3.60;99.90;;;;;;4145510;28;20260;-60
2024/01/13 00:11:48;;;;;;;18.10;8.73;;;-3.60;99.90;;;;;;4145440;28;20298;-57
2024/01/13 00:13:49;;;;;;;24.37;9.27;;;-3.60;99.90;;;;;;4145459;28;20341;-60
2024/01/13 00:15:51;;;;;;;18.27;8.53;;;-3.60;99.90;;;;;;4145530;28;20268;-60
2024/01/13 00:17:52;;;;;;;23.07;9.63;;;-3.60;99.90;;;;;;4145708;28;20341;-60
2024/01/13 00:19:53;;;;;;;18.60;9.00;;;-3.60;99.90;;;;;;4145590;28;20306;-59
2024/01/13 00:21:54;;;;;;;20.77;8.13;;;-3.60;99.90;;;;;;4145019;28;20353;-62
2024/01/13 00:23:56;;;;;;;23.93;8.90;;;-3.60;99.90;;;;;;4145570;28;20803;-60
2024/01/13 00:25:57;;;;;;;21.93;9.73;;;-3.50;99.90;;;;;;4143983;28;20683;-61
2024/01/13 00:27:58;;;;;;;21.07;9.60;;;-3.50;99.90;;;;;;4145160;28;20764;-61
2024/01/13 00:30:00;;;;;;;19.10;8.73;;;-3.50;99.90;;;;;;4144441;28;21182;-60
2024/01/13 00:32:01;;;;;;;17.87;8.97;;;-3.50;99.90;;;;;;4145395;28;20834;-60
2024/01/13 00:34:02;;;;;;;20.07;9.93;;;-3.50;99.90;;;;;;4144674;28;20330;-60
2024/01/13 00:36:03;;;;;;;19.43;9.73;;;-3.50;99.90;;;;;;4145117;28;20330;-59
2024/01/13 00:38:05;;;;;;;22.67;8.93;;;-3.50;99.90;;;;;;4145016;28;20272;-60
2024/01/13 00:40:07;;;;;;;16.27;8.53;;;-3.40;99.90;;;;;;4145014;28;20306;-60
2024/01/13 00:42:08;;;;;;;11.97;6.07;;;-3.40;99.90;;;;;;4144916;28;20287;-60
2024/01/13 00:44:09;;;;;;;14.00;6.20;;;-3.40;99.90;;;;;;4144930;28;20279;-55
2024/01/13 00:46:10;;;;;;;13.27;5.40;;;-3.40;99.90;;;;;;4144886;28;20756;-60
2024/01/13 00:48:11;;;;;;;12.13;5.33;;;-3.40;99.90;;;;;;4145041;28;20287;-60
2024/01/13 00:50:13;;;;;;;12.53;5.70;;;-3.30;99.90;;;;;;4145063;28;20383;-58
2024/01/13 00:52:14;;;;;;;10.77;4.73;;;-3.30;99.90;;;;;;4144452;28;20744;-60
2024/01/13 00:54:15;;;;;;;10.77;4.97;;;-3.30;99.90;;;;;;4145014;28;20333;-55
2024/01/13 00:56:16;;;;;;;14.40;5.67;;;-3.30;99.90;;;;;;4144235;28;20283;-59
2024/01/13 00:58:18;;;;;;;11.03;5.73;;;-3.30;99.90;;;;;;4144953;28;20321;-60
2024/01/13 01:00:20;;;;;;;13.07;5.50;;;-3.30;99.90;;;;;;4144575;28;20768;-61
2024/01/13 01:02:21;;;;;;;9.33;5.53;;;-3.30;99.90;;;;;;4145009;28;20271;-60
2024/01/13 01:04:22;;;;;;;17.93;6.33;;;-3.20;99.90;;;;;;4144544;28;20279;-56
2024/01/13 01:06:23;;;;;;;16.33;6.90;;;-3.30;99.90;;;;;;4143668;28;20338;-59
2024/01/13 01:08:26;;;;;;;13.80;5.73;;;-3.40;99.90;;;;;;4144634;28;20334;-60
2024/01/13 01:10:27;;;;;;;18.30;7.67;;;-3.40;99.90;;;;;;4144638;28;20682;-56
2024/01/13 01:12:28;;;;;;;11.97;5.93;;;-3.50;99.90;;;;;;4144592;28;20275;-58
2024/01/13 01:14:29;;;;;;;14.93;6.20;;;-3.60;99.90;;;;;;4144823;28;20675;-62
2024/01/13 01:16:31;;;;;;;13.47;6.43;;;-3.60;99.90;;;;;;4144442;28;20700;-62
2024/01/13 01:18:32;;;;;;;16.73;6.87;;;-3.60;99.90;;;;;;4145021;28;20370;-60
2024/01/13 01:20:34;;;;;;;17.87;7.57;;;-3.70;99.90;;;;;;4144215;28;20268;-60
2024/01/13 01:22:35;;;;;;;17.33;7.10;;;-3.70;99.90;;;;;;4144624;28;21005;-58
2024/01/13 01:24:36;;;;;;;16.57;6.40;;;-3.70;99.90;;;;;;4144491;28;20325;-60
2024/01/13 01:26:37;;;;;;;16.37;6.90;;;-3.70;99.90;;;;;;4143828;28;20267;-57
2024/01/13 01:28:38;;;;;;;16.17;6.77;;;-3.70;99.90;;;;;;4144734;28;20831;-56
2024/01/13 01:30:40;;;;;;;20.10;8.57;;;-3.70;99.90;;;;;;4143862;28;20319;-60
2024/01/13 01:32:41;;;;;;;18.40;7.83;;;-3.70;99.90;;;;;;4144557;28;21012;-59
2024/01/13 01:34:42;;;;;;;20.03;8.33;;;-3.70;99.90;;;;;;4142829;28;20393;-57
2024/01/13 01:36:43;;;;;;;16.57;7.70;;;-3.80;99.90;;;;;;4144325;28;20283;-58
2024/01/13 01:38:44;;;;;;;18.63;7.13;;;-3.80;99.90;;;;;;4144247;28;20295;-59
2024/01/13 01:40:53;;;;;;;13.37;7.30;;;-3.80;99.90;;;;;;4143569;28;20835;-59
2024/01/13 01:42:54;;;;;;;16.50;6.83;;;-3.80;99.90;;;;;;4143964;28;20271;-58
2024/01/13 01:44:56;;;;;;;17.57;7.93;;;-3.90;99.90;;;;;;4144066;28;20326;-58
2024/01/13 01:46:59;;;;;;;16.77;7.30;;;-3.90;99.90;;;;;;4144024;28;20342;-60
2024/01/13 01:49:00;;;;;;;19.07;8.00;;;-3.90;99.90;;;;;;4144524;28;20264;-61
2024/01/13 01:51:02;;;;;;;18.87;8.13;;;-3.90;99.90;;;;;;4144299;28;20330;-59
2024/01/13 01:53:03;;;;;;;15.73;7.10;;;-3.90;99.90;;;;;;4144068;28;20255;-59
2024/01/13 01:55:06;;;;;;;21.87;8.37;;;-3.90;99.90;;;;;;4144107;28;20654;-61
2024/01/13 01:57:13;;;;;;;25.10;9.53;;;-3.80;99.90;;;;;;4143695;28;20302;-55
2024/01/13 01:59:14;;;;;;;19.60;8.83;;;-3.80;99.90;;;;;;4144279;28;20299;-61
2024/01/13 02:01:17;;;;;;;18.80;8.33;;;-3.80;99.90;;;;;;4143685;28;20263;-58
2024/01/13 02:03:18;;;;;;;23.50;8.93;;;-3.80;99.90;;;;;;4144074;28;20271;-61
2024/01/13 02:05:21;;;;;;;16.77;7.83;;;-3.80;99.90;;;;;;4143392;28;20092;-60
2024/01/13 02:07:22;;;;;;;17.00;7.97;;;-3.90;99.90;;;;;;4144047;28;20732;-60
2024/01/13 02:09:23;;;;;;;15.37;7.70;;;-3.90;99.90;;;;;;4143228;28;20369;-60
2024/01/13 02:11:25;;;;;;;19.40;7.27;;;-3.90;99.90;;;;;;4144310;28;20809;-62
2024/01/13 02:13:26;;;;;;;18.40;8.30;;;-3.90;99.90;;;;;;4143487;28;20314;-61
2024/01/13 02:15:28;;;;;;;16.90;8.30;;;-3.90;99.90;;;;;;4144135;28;20268;-60
2024/01/13 02:17:29;;;;;;;18.40;8.30;;;-4.00;99.90;;;;;;4143675;28;20326;-59
2024/01/13 02:19:35;;;;;;;16.87;7.90;;;-4.00;99.90;;;;;;4144259;28;20373;-61
2024/01/13 02:21:36;;;;;;;20.47;8.30;;;-4.00;99.90;;;;;;4143934;28;20705;-58
2024/01/13 02:23:37;;;;;;;21.50;9.30;;;-4.00;99.90;;;;;;4144016;28;20267;-57
2024/01/13 02:25:38;;;;;;;16.55;7.82;;;-4.00;99.90;;;;;;4143789;28;20263;-61
2024/01/13 02:27:40;;;;;;;20.90;8.40;;;-4.00;99.90;;;;;;4143449;28;20111;-61
2024/01/13 02:29:41;;;;;;;19.93;7.70;;;-4.00;99.90;;;;;;4143787;28;20038;-59
2024/01/13 02:31:42;;;;;;;14.07;7.60;;;-4.00;99.90;;;;;;4143696;28;20683;-60
2024/01/13 02:33:43;;;;;;;14.87;6.83;;;-4.00;99.90;;;;;;4144026;28;22139;-60
2024/01/13 02:35:44;;;;;;;15.70;7.63;;;-4.00;99.90;;;;;;4143609;28;20763;-60
2024/01/13 02:37:45;;;;;;;17.00;7.47;;;-4.00;99.90;;;;;;4142774;28;20275;-59
2024/01/13 02:39:47;;;;;;;17.80;7.77;;;-4.00;99.90;;;;;;4142939;28;20345;-61
2024/01/13 02:41:48;;;;;;;13.10;6.30;;;-4.00;99.90;;;;;;4143966;28;20728;-60
2024/01/13 02:43:49;;;;;;;14.40;6.87;;;-4.00;99.90;;;;;;4143354;28;20463;-60
2024/01/13 02:45:51;;;;;;;15.97;6.87;;;-4.00;99.90;;;;;;4143864;28;20259;-60
2024/01/13 02:48:04;;;;;;;14.70;6.77;;;-4.00;99.90;;;;;;4143614;28;20268;-61
2024/01/13 02:50:05;;;;;;;13.53;6.77;;;-4.00;99.90;;;;;;4144289;28;20279;-60
2024/01/13 02:52:07;;;;;;;18.43;7.27;;;-4.00;99.90;;;;;;4144031;28;20313;-60
2024/01/13 02:54:08;;;;;;;54.70;17.08;;;-4.10;99.90;;;;;;4146853;28;20271;-61
2024/01/13 02:56:09;;;;;;;20.35;9.02;;;-4.10;99.90;;;;;;4146812;28;20061;-58
2024/01/13 02:58:10;;;;;;;19.27;9.30;;;-4.20;99.90;;;;;;4146807;28;20643;-61
2024/01/13 03:00:13;;;;;;;23.33;10.38;;;-4.20;99.90;;;;;;4130350;28;20725;-60
2024/01/13 03:02:14;;;;;;;20.80;9.02;;;-4.20;99.90;;;;;;4138011;28;20474;-59
2024/01/13 03:04:15;;;;;;;23.83;10.05;;;-4.30;99.90;;;;;;4146753;28;21686;-58
2024/01/13 03:06:16;;;;;;;21.67;10.38;;;-4.40;99.90;;;;;;4146298;28;20026;-60
2024/01/13 03:08:17;;;;;;;27.93;11.00;;;-4.50;99.90;;;;;;4146938;28;20585;-60
2024/01/13 03:10:19;;;;;;;18.88;9.93;;;-4.60;99.90;;;;;;4146018;28;20706;-60
2024/01/13 03:12:20;;;;;;;17.88;8.98;;;-4.60;99.90;;;;;;4146868;28;20088;-60
2024/01/13 03:14:21;;;;;;;23.35;9.68;;;-4.60;99.90;;;;;;4146076;28;20100;-61
2024/01/13 03:16:22;;;;;;;18.73;7.53;;;-4.70;99.90;;;;;;4146861;28;20038;-60
2024/01/13 03:18:24;;;;;;;18.73;8.30;;;-4.70;99.90;;;;;;4146203;28;20433;-61
2024/01/13 03:20:25;;;;;;;20.90;10.32;;;-4.60;99.90;;;;;;4146994;28;20100;-60
2024/01/13 03:22:26;;;;;;;20.90;8.93;;;-4.60;99.90;;;;;;4146361;28;20038;-62
2024/01/13 03:24:27;;;;;;;20.65;9.43;;;-4.60;99.90;;;;;;4146504;28;20893;-59
2024/01/13 03:26:28;;;;;;;24.75;9.82;;;-4.70;99.90;;;;;;4145937;28;20448;-59
2024/01/13 03:28:29;;;;;;;22.42;9.18;;;-4.70;99.90;;;;;;4146417;28;20042;-60
2024/01/13 03:30:31;;;;;;;18.10;8.80;;;-4.60;99.90;;;;;;4144574;28;20431;-59
2024/01/13 03:32:32;;;;;;;22.42;10.70;;;-4.70;99.90;;;;;;4146004;28;20271;-59
2024/01/13 03:34:33;;;;;;;24.70;10.80;;;-4.70;99.90;;;;;;4146161;28;20521;-60
2024/01/13 03:36:35;;;;;;;19.92;9.35;;;-4.70;99.90;;;;;;4145718;28;20536;-60
2024/01/13 03:38:36;;;;;;;17.40;9.33;;;-4.70;99.90;;;;;;4146307;28;20088;-60
2024/01/13 03:40:37;;;;;;;21.63;9.52;;;-4.80;99.90;;;;;;4145658;28;20853;-59
2024/01/13 03:42:39;;;;;;;18.52;9.20;;;-4.80;99.90;;;;;;4146172;28;20548;-59
2024/01/13 03:44:41;;;;;;;21.70;9.65;;;-4.80;99.90;;;;;;4145566;28;20030;-61
2024/01/13 03:46:42;;;;;;;27.45;10.30;;;-4.90;99.90;;;;;;4146093;28;20030;-58
2024/01/13 03:48:43;;;;;;;20.55;9.95;;;-4.90;99.90;;;;;;4145681;28;20030;-55
2024/01/13 03:50:44;;;;;;;23.67;10.70;;;-5.00;99.90;;;;;;4146457;28;20584;-60
2024/01/13 03:52:46;;;;;;;21.60;8.85;;;-5.00;99.90;;;;;;4145896;28;20096;-59
2024/01/13 03:54:47;;;;;;;21.70;8.07;;;-5.00;99.90;;;;;;4146161;28;20084;-59
2024/01/13 03:56:48;;;;;;;16.92;8.40;;;-5.00;99.90;;;;;;4145653;28;20026;-61
2024/01/13 03:58:49;;;;;;;18.67;8.23;;;-5.00;99.90;;;;;;4145441;28;20414;-60
2024/01/13 04:00:50;;;;;;;23.15;9.23;;;-5.00;99.90;;;;;;4145592;28;20038;-61
2024/01/13 04:02:51;;;;;;;24.20;9.82;;;-5.00;99.90;;;;;;4145815;28;20034;-59
2024/01/13 04:04:53;;;;;;;22.58;10.10;;;-5.00;99.90;;;;;;4144875;28;20030;-58
2024/01/13 04:06:54;;;;;;;23.75;9.57;;;-5.00;99.90;;;;;;4145480;28;20026;-60
2024/01/13 04:08:55;;;;;;;19.63;9.68;;;-5.00;99.90;;;;;;4146116;28;20434;-60
2024/01/13 04:10:57;;;;;;;22.30;8.80;;;-4.90;99.90;;;;;;4144917;28;20029;-61
2024/01/13 04:13:00;;;;;;;26.90;10.13;;;-5.00;99.90;;;;;;4145403;28;20057;-60
2024/01/13 04:15:01;;;;;;;17.85;8.38;;;-4.90;99.90;;;;;;4145354;28;20038;-59
2024/01/13 04:17:02;;;;;;;18.02;8.52;;;-5.00;99.90;;;;;;4145943;28;20084;-58
2024/01/13 04:19:04;;;;;;;17.35;8.27;;;-5.00;99.90;;;;;;4145277;28;20026;-60
2024/01/13 04:21:05;;;;;;;23.77;8.63;;;-5.00;99.90;;;;;;4145396;28;20030;-59
2024/01/13 04:23:06;;;;;;;19.85;9.00;;;-5.00;99.90;;;;;;4145164;28;20441;-58
2024/01/13 04:25:07;;;;;;;21.75;9.38;;;-5.00;99.90;;;;;;4145553;28;21059;-59
2024/01/13 04:27:08;;;;;;;23.33;9.48;;;-5.00;99.90;;;;;;4145070;28;20037;-57
2024/01/13 04:29:10;;;;;;;18.95;9.55;;;-5.00;99.90;;;;;;4145211;28;20038;-58
2024/01/13 04:31:11;;;;;;;32.05;10.10;;;-5.00;99.90;;;;;;4145336;28;20034;-59
2024/01/13 04:33:13;;;;;;;22.25;9.63;;;-5.00;99.90;;;;;;4145161;28;20030;-60
2024/01/13 04:35:14;;;;;;;22.65;10.13;;;-4.90;99.90;;;;;;4145103;28;20030;-60
2024/01/13 04:37:15;;;;;;;17.95;9.00;;;-4.90;99.90;;;;;;4145298;28;20290;-60
2024/01/13 04:39:17;;;;;;;21.15;8.57;;;-4.90;99.90;;;;;;4144968;28;20046;-60
2024/01/13 04:41:18;;;;;;;19.45;8.60;;;-4.90;99.90;;;;;;4144436;28;20034;-60
2024/01/13 04:43:19;;;;;;;19.48;9.18;;;-4.80;99.90;;;;;;4145143;28;20065;-60
2024/01/13 04:45:20;;;;;;;18.97;9.57;;;-4.80;99.90;;;;;;4144559;28;20038;-59
2024/01/13 04:47:21;;;;;;;19.73;8.73;;;-4.80;99.90;;;;;;4144981;28;20647;-57
2024/01/13 04:49:22;;;;;;;20.90;9.30;;;-4.70;99.90;;;;;;4144932;28;20029;-60
2024/01/13 04:51:24;;;;;;;21.73;9.23;;;-4.70;99.90;;;;;;4145312;28;20030;-59
2024/01/13 04:53:25;;;;;;;26.77;9.73;;;-4.70;99.90;;;;;;4144810;28;20763;-60
2024/01/13 04:55:26;;;;;;;22.15;8.98;;;-4.80;99.90;;;;;;4144917;28;20046;-60
2024/01/13 04:57:27;;;;;;;22.60;9.52;;;-4.80;99.90;;;;;;4144196;28;20563;-59
2024/01/13 04:59:30;;;;;;;28.13;10.30;;;-4.90;99.90;;;;;;4144783;28;20180;-62
2024/01/13 05:01:31;;;;;;;30.70;13.50;;;-5.00;99.90;;;;;;4144241;28;20088;-61
2024/01/13 05:03:32;;;;;;;38.25;12.85;;;-5.10;99.90;;;;;;4144596;28;20264;-56
2024/01/13 05:05:33;;;;;;;32.47;14.80;;;-5.20;99.90;;;;;;4144750;28;20084;-53
2024/01/13 05:07:36;;;;;;;38.78;15.70;;;-5.20;99.90;;;;;;4144563;28;20268;-57
2024/01/13 05:09:37;;;;;;;32.75;13.73;;;-5.30;99.90;;;;;;4144913;28;20046;-59
2024/01/13 05:11:38;;;;;;;30.38;13.45;;;-5.30;99.90;;;;;;4144222;28;20922;-61
2024/01/13 05:13:40;;;;;;;27.90;13.07;;;-5.30;99.90;;;;;;4144672;28;20026;-59
2024/01/13 05:15:42;;;;;;;27.50;13.63;;;-5.30;99.90;;;;;;4144283;28;20050;-58
2024/01/13 05:17:43;;;;;;;29.10;13.60;;;-5.30;99.90;;;;;;4144907;28;20482;-57
2024/01/13 05:19:44;;;;;;;28.90;13.57;;;-5.30;99.90;;;;;;4144342;28;20116;-61
2024/01/13 05:21:46;;;;;;;39.53;15.57;;;-5.20;99.90;;;;;;4144692;28;20084;-59
2024/01/13 05:23:47;;;;;;;35.95;15.73;;;-5.20;99.90;;;;;;4144309;28;20042;-61
2024/01/13 05:25:48;;;;;;;41.65;15.45;;;-5.20;99.90;;;;;;4144376;28;20038;-60
2024/01/13 05:27:49;;;;;;;38.45;16.42;;;-5.20;99.90;;;;;;4144066;28;20061;-59
2024/01/13 05:29:50;;;;;;;42.28;15.48;;;-5.10;99.90;;;;;;4144084;28;20076;-58
2024/01/13 05:31:51;;;;;;;31.60;14.00;;;-5.10;99.90;;;;;;4144647;28;20160;-58
2024/01/13 05:33:53;;;;;;;29.10;12.43;;;-5.10;99.90;;;;;;4144304;28;20033;-59
2024/01/13 05:35:54;;;;;;;30.55;12.70;;;-5.00;99.90;;;;;;4144146;28;20030;-59
2024/01/13 05:37:55;;;;;;;28.02;11.18;;;-5.00;99.90;;;;;;4143752;28;20026;-61
2024/01/13 05:39:58;;;;;;;34.13;13.32;;;-4.90;99.90;;;;;;4144020;28;20972;-55
2024/01/13 05:41:59;;;;;;;28.52;11.73;;;-4.90;99.90;;;;;;4143949;28;20529;-61
2024/01/13 05:44:00;;;;;;;26.33;11.38;;;-4.90;99.90;;;;;;4144596;28;20465;-60
2024/01/13 05:46:01;;;;;;;24.80;11.63;;;-4.90;99.90;;;;;;4143718;28;20425;-60
2024/01/13 05:48:03;;;;;;;29.73;12.88;;;-5.00;99.90;;;;;;4144209;28;20560;-59
2024/01/13 05:50:05;;;;;;;27.58;12.77;;;-4.90;99.90;;;;;;4144247;28;20092;-59
2024/01/13 05:52:06;;;;;;;30.33;13.52;;;-4.90;99.90;;;;;;4144062;28;20026;-57
2024/01/13 05:54:07;;;;;;;31.55;11.95;;;-5.00;99.90;;;;;;4143592;28;20418;-59
2024/01/13 05:56:09;;;;;;;33.17;13.25;;;-5.00;99.90;;;;;;4143987;28;20101;-56
2024/01/13 05:58:10;;;;;;;26.65;11.50;;;-5.10;99.90;;;;;;4143847;28;20525;-56
2024/01/13 06:00:11;;;;;;;30.98;14.15;;;-5.10;99.90;;;;;;4143632;28;20104;-60
2024/01/13 06:02:13;;;;;;;37.20;16.25;;;-5.00;99.90;;;;;;4143654;28;20518;-60
2024/01/13 06:04:15;;;;;;;41.40;17.60;;;-5.00;99.90;;;;;;4143753;28;20430;-61
2024/01/13 06:06:17;;;;;;;28.80;13.10;;;-5.10;99.90;;;;;;4143308;28;20034;-59
2024/01/13 06:08:18;;;;;;;28.90;12.38;;;-5.10;99.90;;;;;;4143040;28;20477;-61
2024/01/13 06:10:19;;;;;;;28.42;14.32;;;-5.10;99.90;;;;;;4143255;28;20034;-59
2024/01/13 06:12:22;;;;;;;24.35;12.43;;;-5.30;99.90;;;;;;4144597;28;20029;-61
2024/01/13 06:14:24;;;;;;;30.05;11.35;;;-5.40;99.90;;;;;;4143830;28;20169;-55
2024/01/13 06:16:26;;;;;;;24.65;11.15;;;-5.50;99.90;;;;;;4143624;28;20100;-60
2024/01/13 06:18:27;;;;;;;21.90;11.38;;;-5.60;99.90;;;;;;4144175;28;20385;-59
2024/01/13 06:20:28;;;;;;;27.63;11.13;;;-5.70;99.90;;;;;;4143836;28;20046;-61
2024/01/13 06:22:29;;;;;;;24.65;11.50;;;-5.70;99.90;;;;;;4143726;28;20033;-60
2024/01/13 06:24:30;;;;;;;26.33;11.60;;;-5.70;99.90;;;;;;4143161;28;20034;-61
2024/01/13 06:26:32;;;;;;;27.48;12.20;;;-5.70;99.90;;;;;;4143747;28;20445;-59
2024/01/13 06:28:33;;;;;;;24.83;10.63;;;-5.70;99.90;;;;;;4146092;28;20495;-60
2024/01/13 06:30:34;;;;;;;29.27;11.57;;;-5.60;99.90;;;;;;4146890;28;20386;-60
2024/01/13 06:32:35;;;;;;;27.88;11.88;;;-5.60;99.90;;;;;;4146839;28;20034;-58
2024/01/13 06:34:36;;;;;;;24.52;10.73;;;-5.60;99.90;;;;;;4146718;28;20050;-56
2024/01/13 06:36:37;;;;;;;21.13;10.85;;;-5.50;99.90;;;;;;4146891;28;20035;-61
2024/01/13 06:38:39;;;;;;;28.58;10.90;;;-5.50;99.90;;;;;;4146909;28;20438;-59
2024/01/13 06:40:40;;;;;;;25.83;11.73;;;-5.50;99.90;;;;;;4146557;28;20436;-60
2024/01/13 06:42:41;;;;;;;28.15;11.15;;;-5.50;99.90;;;;;;4146497;28;20471;-59
2024/01/13 06:44:42;;;;;;;26.98;11.23;;;-5.40;99.90;;;;;;4146961;28;20116;-59
2024/01/13 06:46:44;;;;;;;21.15;10.32;;;-5.40;99.90;;;;;;4146698;28;20046;-58
2024/01/13 06:48:45;;;;;;;21.02;10.02;;;-5.40;99.90;;;;;;4146685;28;20030;-56
2024/01/13 06:50:46;;;;;;;25.13;9.75;;;-5.40;99.90;;;;;;4145848;28;20018;-59
2024/01/13 06:52:47;;;;;;;24.92;12.07;;;-5.40;99.90;;;;;;4146758;28;20042;-60
2024/01/13 06:54:49;;;;;;;23.15;9.93;;;-5.40;99.90;;;;;;4146077;28;20088;-59
2024/01/13 06:56:50;;;;;;;23.45;10.38;;;-5.30;99.90;;;;;;4146464;28;20107;-60
2024/01/13 06:58:51;;;;;;;29.42;11.30;;;-5.20;99.90;;;;;;4146489;28;20034;-58
2024/01/13 07:00:52;;;;;;;30.90;13.48;;;-5.10;99.90;;;;;;4146030;28;20137;-55
2024/01/13 07:02:53;;;;;;;24.65;10.43;;;-5.10;99.90;;;;;;4146582;28;20096;-56
2024/01/13 07:05:00;;;;;;;29.70;12.50;;;-5.10;99.90;;;;;;4146318;28;20091;-59
2024/01/13 07:07:01;;;;;;;27.42;11.70;;;-5.10;99.90;;;;;;4146273;28;20100;-60
2024/01/13 07:09:03;;;;;;;34.92;14.07;;;-5.00;99.90;;;;;;4146033;28;20077;-58
2024/01/13 07:11:14;;;;;;;25.45;12.02;;;-4.90;99.90;;;;;;4146172;28;20034;-59
2024/01/13 07:13:15;;;;;;;31.40;12.30;;;-4.90;99.90;;;;;;4146267;28;20038;-58
2024/01/13 07:15:17;;;;;;;29.45;13.25;;;-4.90;99.90;;;;;;4145977;28;20525;-55
2024/01/13 07:17:18;;;;;;;25.85;11.88;;;-4.90;99.90;;;;;;4145954;28;20096;-59
2024/01/13 07:19:19;;;;;;;31.85;12.50;;;-4.90;99.90;;;;;;4146318;28;20132;-59
2024/01/13 07:21:20;;;;;;;27.80;12.43;;;-4.90;99.90;;;;;;4145921;28;20655;-58
2024/01/13 07:23:22;;;;;;;26.83;12.50;;;-4.90;99.90;;;;;;4145959;28;20025;-57
2024/01/13 07:25:25;;;;;;;29.15;12.75;;;-4.90;99.90;;;;;;4145920;28;20045;-58
2024/01/13 07:27:26;;;;;;;27.02;12.65;;;-4.90;99.90;;;;;;4146243;28;20049;-60
2024/01/13 07:29:27;;;;;;;27.65;12.73;;;-4.90;99.90;;;;;;4145591;28;20041;-60
2024/01/13 07:31:28;;;;;;;25.38;12.95;;;-4.90;99.90;;;;;;4146615;28;20034;-62
2024/01/13 07:33:29;;;;;;;50.40;21.80;;;-4.80;99.90;;;;;;4145598;28;20030;-61
2024/01/13 07:35:31;;;;;;;35.67;15.52;;;-4.80;99.90;;;;;;4145950;28;20030;-61
2024/01/13 07:37:32;;;;;;;29.17;14.20;;;-4.80;99.90;;;;;;4145854;28;20500;-60
2024/01/13 07:39:33;;;;;;;36.70;14.27;;;-4.70;99.90;;;;;;4144515;28;20067;-57
2024/01/13 07:41:34;;;;;;;36.20;14.65;;;-4.70;99.90;;;;;;4145605;28;20046;-61
2024/01/13 07:43:36;;;;;;;33.13;14.07;;;-4.70;99.90;;;;;;4145895;28;20478;-62
2024/01/13 07:45:37;;;;;;;29.45;14.15;;;-4.70;99.90;;;;;;4145689;28;20081;-61
2024/01/13 07:47:39;;;;;;;31.83;12.85;;;-4.60;99.90;;;;;;4145550;28;20029;-60
2024/01/13 07:49:40;;;;;;;28.75;14.20;;;-4.60;99.90;;;;;;4145990;28;20065;-60
2024/01/13 07:51:41;;;;;;;26.10;12.57;;;-4.60;99.90;;;;;;4145581;28;20524;-63
2024/01/13 07:53:42;;;;;;;34.05;13.15;;;-4.60;99.90;;;;;;4145629;28;20112;-61
2024/01/13 07:55:43;;;;;;;24.95;11.88;;;-4.50;99.90;;;;;;4141546;28;20021;-62
2024/01/13 07:57:45;;;;;;;28.20;11.20;;;-4.50;99.90;;;;;;4136751;28;20038;-63
2024/01/13 07:59:46;;;;;;;23.55;12.02;;;-4.50;99.90;;;;;;4144894;28;20042;-62
2024/01/13 08:01:47;;;;;;;26.65;11.63;;;-4.50;99.90;;;;;;4145782;28;20121;-61
2024/01/13 08:03:48;;;;;;;27.95;11.45;;;-4.40;99.90;;;;;;4145045;28;20088;-58
2024/01/13 08:05:49;;;;;;;33.63;13.05;;;-4.40;99.90;;;;;;4144920;28;20111;-64
2024/01/13 08:07:51;;;;;;;28.63;13.57;;;-4.30;99.90;;;;;;4144960;28;20105;-61
2024/01/13 08:09:52;;;;;;;26.02;12.38;;;-4.20;99.90;;;;;;4145063;28;20042;-62
2024/01/13 08:11:53;;;;;;;32.38;12.00;;;-4.20;99.90;;;;;;4145105;28;20076;-63
2024/01/13 08:13:55;;;;;;;32.30;12.95;;;-4.10;99.90;;;;;;4144560;28;20544;-60
2024/01/13 08:15:56;;;;;;;29.38;11.95;;;-4.00;99.90;;;;;;4145338;28;20399;-61
2024/01/13 08:17:58;;;;;;;28.40;11.93;;;-4.00;99.90;;;;;;4144860;28;20470;-62
2024/01/13 08:19:59;;;;;;;27.02;12.02;;;-4.00;99.90;;;;;;4145435;28;20026;-61
2024/01/13 08:22:00;;;;;;;23.40;11.73;;;-3.90;99.90;;;;;;4144766;28;20125;-63
2024/01/13 08:24:01;;;;;;;29.57;11.43;;;-3.90;99.90;;;;;;4145351;28;20099;-63
2024/01/13 08:26:03;;;;;;;28.13;11.63;;;-3.90;99.90;;;;;;4144526;28;20285;-60
2024/01/13 08:28:04;;;;;;;27.05;12.52;;;-3.90;99.90;;;;;;4144674;28;20288;-62
2024/01/13 08:30:06;;;;;;;28.33;12.13;;;-3.90;99.90;;;;;;4144765;28;20405;-61
2024/01/13 08:32:07;;;;;;;24.63;11.90;;;-3.80;99.90;;;;;;4145118;28;20375;-61
2024/01/13 08:34:09;;;;;;;27.55;11.85;;;-3.90;99.90;;;;;;4144635;28;20026;-61
2024/01/13 08:36:10;;;;;;;29.52;12.73;;;-3.90;99.90;;;;;;4145306;28;20054;-63
2024/01/13 08:38:13;;;;;;;30.17;13.57;;;-3.80;99.90;;;;;;4144327;28;20089;-61
2024/01/13 08:40:14;;;;;;;29.20;13.33;;;-3.80;99.90;;;;;;4143550;28;20283;-61
2024/01/13 08:42:15;;;;;;;33.03;14.10;;;-3.80;99.90;;;;;;4144834;28;20260;-62
2024/01/13 08:44:16;;;;;;;19.87;10.27;;;-3.70;99.90;;;;;;4144630;28;20037;-59
2024/01/13 08:46:17;;;;;;;26.10;11.57;;;-3.70;99.90;;;;;;4144520;28;20330;-61
2024/01/13 08:48:18;;;;;;;29.20;11.20;;;-3.70;99.90;;;;;;4144463;28;20260;-63
2024/01/13 08:50:20;;;;;;;24.30;10.63;;;-3.70;99.90;;;;;;4144273;28;20670;-64
2024/01/13 08:52:21;;;;;;;32.00;12.90;;;-3.60;99.90;;;;;;4144605;28;20752;-65
2024/01/13 08:54:25;;;;;;;25.73;11.20;;;-3.60;99.90;;;;;;4144860;28;20252;-59
2024/01/13 08:56:26;;;;;;;25.50;11.00;;;-3.60;99.90;;;;;;4144252;28;20365;-62
2024/01/13 08:58:27;;;;;;;28.53;11.43;;;-3.60;99.90;;;;;;4144773;28;20330;-63
2024/01/13 09:00:28;;;;;;;28.98;11.98;;;-3.50;99.90;;;;;;4144120;28;20722;-61
2024/01/13 09:02:30;;;;;;;32.43;12.20;;;-3.40;99.90;;;;;;4144754;28;20371;-62
2024/01/13 09:04:31;;;;;;;31.60;12.93;;;-3.40;99.90;;;;;;4143619;28;20302;-63
2024/01/13 09:06:32;;;;;;;29.27;12.63;;;-3.30;99.90;;;;;;4144608;28;20632;-62
2024/01/13 09:08:34;;;;;;;30.87;13.50;;;-3.30;99.90;;;;;;4144438;28;20718;-60
2024/01/13 09:10:35;;;;;;;28.33;12.87;;;-3.20;99.90;;;;;;4144484;28;20322;-63
2024/01/13 09:12:37;;;;;;;33.78;12.63;;;-3.20;99.90;;;;;;4144093;28;20314;-65
2024/01/13 09:14:38;;;;;;;26.17;11.77;;;-3.10;99.90;;;;;;4144462;28;20030;-64
2024/01/13 09:16:39;;;;;;;32.17;12.47;;;-3.10;99.90;;;;;;4142950;28;20756;-60
2024/01/13 09:18:41;;;;;;;29.83;11.97;;;-3.10;99.90;;;;;;4144504;28;20743;-60
2024/01/13 09:20:42;;;;;;;28.67;11.77;;;-3.00;99.90;;;;;;4144798;28;20314;-63
2024/01/13 09:22:43;;;;;;;23.63;11.57;;;-3.00;99.90;;;;;;4144426;28;20268;-63
2024/01/13 09:24:44;;;;;;;30.07;12.03;;;-3.00;99.90;;;;;;4144447;28;20397;-62
2024/01/13 09:26:46;;;;;;;27.80;12.40;;;-3.00;99.90;;;;;;4143576;28;20325;-62
2024/01/13 09:28:47;;;;;;;28.47;10.67;;;-3.00;99.90;;;;;;4143914;28;20291;-62
2024/01/13 09:30:48;;;;;;;24.97;11.90;;;-3.00;99.90;;;;;;4143947;28;20275;-61
2024/01/13 09:32:49;;;;;;;35.70;13.83;;;-2.90;99.90;;;;;;4144425;28;20272;-63
2024/01/13 09:34:51;;;;;;;25.50;10.90;;;-2.80;99.90;;;;;;4143627;28;20280;-63
2024/01/13 09:36:52;;;;;;;27.73;10.73;;;-2.80;99.90;;;;;;4144001;28;20318;-60
2024/01/13 09:38:54;;;;;;;20.87;9.97;;;-2.70;99.90;;;;;;4144096;28;20853;-63
2024/01/13 09:40:56;;;;;;;25.33;10.97;;;-2.70;99.90;;;;;;4143908;28;20327;-62
2024/01/13 09:43:13;;;;;;;23.70;10.87;;;-2.70;99.90;;;;;;4126415;28;20292;-60
2024/01/13 09:45:14;;;;;;;20.63;10.03;;;-2.70;99.90;;;;;;4143888;28;20318;-57
2024/01/13 09:47:15;;;;;;;25.13;10.77;;;-2.70;99.90;;;;;;4143450;28;20325;-62
2024/01/13 09:49:17;;;;;;;26.30;10.87;;;-2.70;99.90;;;;;;4143603;28;20811;-57
2024/01/13 09:51:19;;;;;;;28.40;11.13;;;-2.70;99.90;;;;;;4144045;28;20660;-58
2024/01/13 09:53:30;;;;;;;24.93;11.03;;;-2.70;99.90;;;;;;4143439;28;20263;-60
2024/01/13 09:55:33;;;;;;;29.27;10.87;;;-2.70;99.90;;;;;;4143492;28;20317;-60
2024/01/13 09:57:35;;;;;;;25.90;10.57;;;-2.60;99.90;;;;;;4143933;28;20809;-60
2024/01/13 09:59:38;;;;;;;40.07;13.30;;;-2.60;99.90;;;;;;4143193;28;20838;-57
2024/01/13 10:01:39;;;;;;;20.63;10.23;;;-2.70;99.90;;;;;;4142186;28;21182;-60
2024/01/13 10:03:40;;;;;;;25.87;10.93;;;-2.70;99.90;;;;;;4152723;28;20279;-62
2024/01/13 10:05:42;;;;;;;23.57;11.03;;;-2.70;99.90;;;;;;4143073;28;20272;-63
2024/01/13 10:07:50;;;;;;;25.50;10.03;;;-2.60;99.90;;;;;;4143720;28;20763;-62
2024/01/13 10:09:51;;;;;;;27.40;11.57;;;-2.60;99.90;;;;;;4142900;28;20256;-61
2024/01/13 10:11:54;;;;;;;27.00;12.73;;;-2.60;99.90;;;;;;4142923;28;20260;-61
2024/01/13 10:14:14;;;;;;;22.00;11.27;;;-2.60;99.90;;;;;;4142549;28;20287;-62
2024/01/13 10:16:15;;;;;;;29.10;11.50;;;-2.60;99.90;;;;;;4143437;28;20365;-59
2024/01/13 10:18:17;;;;;;;21.80;9.60;;;-2.50;99.90;;;;;;4143018;28;20038;-62
2024/01/13 10:20:18;;;;;;;22.77;10.27;;;-2.60;99.90;;;;;;4143915;28;20330;-59